Etusivu
METAR-TAF:

METAR-TAF

Lentoasemat :

Irkutskin lentoasema

Irkutsk, Venäjä

Leveyspiiri: 52-16N, Pituuspiiri: 104-19E, korkeus merenpinnasta: 513 m

Tämänhetkinen sää

Tämä raportti tehtiin 38 minuuttia sitten, kello 09.30 UTC
Tuuli 10 kn etelästä/kaakosta
Lämpötila -4°C
Kosteus 86%
Ilmanpaine 1020 hPa
Näkyvyys 10 km tai enemmän
ei pilviä alle 1500 m:ssä eikä cumulonimbus-pilviä

METAR: UIII 060930Z 16005MPS CAVOK M04/M06 Q1020 R12/820552 NOSIG RMK QFE723/0964

Aika: 18:08 (10:08 UTC)

Sääennuste

Tämä raportti tehtiin 2 tuntia ja 8 minuuttia sitten, kello 08.00 UTC
Ennuste voimassa 06. päivästä klo 09 UTC - 07. päivään klo 09 UTC
Tuuli 10 kn etelästä/kaakosta puuskistuen 19 kn:hen
Näkyvyys 10 km tai enemmän
ei pilviä alle 1500 m:ssä eikä cumulonimbus-pilviä

TAF: UIII 060800Z 0609/0709 16005G10MPS CAVOK

Säähavainnot ja -ennusteet yli 4000 lentoasemalta (METAR- ja TAF-raportit).

Käytössä olevat sääasemat on merkitty karttaan keltaisilla ja punaisilla pisteillä.

Aseta hiiri pisteen päälle nähdäksesi sääaseman nimen.

Klikkaa sitten nähdäksesi säähavainnot ja -ennusteet.

Kartan vaihtaminen: klikkaa mustalla rastilla varustettuja vihreitä pisteitä, niin voit zoomata sisään; viivalla varustettua vihreää pistettä, niin voit zoomata ulos tai vihreitä nuolia, niin pääset viereisille kartoille.


METAR-TAF: